Time;durP1;ratioP1;P1;durP2;ratioP2;P2;SDS_P1;SDS_P2;PMS_P1;PMS_P2;Temp;Humidity;BMP_temperature;BMP_pressure;BME280_temperature;BME280_humidity;BME280_pressure;Samples;Min_cycle;Max_cycle;Signal;HPM_P1;HPM_P2
2021/08/30 00:00:51;;;;;;;19.87;17.03;;;16.90;99.90;;;;;;5055249;28;20198;-72
2021/08/30 00:03:16;;;;;;;17.57;15.53;;;16.80;99.90;;;;;;5055488;28;20166;-72
2021/08/30 00:05:42;;;;;;;19.83;16.73;;;16.80;99.90;;;;;;5056177;28;20200;-72
2021/08/30 00:08:07;;;;;;;17.37;15.53;;;16.80;99.90;;;;;;5056123;28;20266;-72
2021/08/30 00:10:33;;;;;;;17.00;15.30;;;16.80;99.90;;;;;;5057356;28;20202;-71
2021/08/30 00:12:58;;;;;;;17.90;16.00;;;16.90;99.90;;;;;;5057880;28;20213;-71
2021/08/30 00:15:24;;;;;;;18.97;17.10;;;16.90;99.90;;;;;;5049687;28;21044;-71
2021/08/30 00:17:51;;;;;;;19.17;17.17;;;16.90;99.90;;;;;;5055514;28;20170;-71
2021/08/30 00:20:20;;;;;;;18.70;16.70;;;17.00;99.90;;;;;;5036023;28;20210;-72
2021/08/30 00:22:46;;;;;;;20.00;18.10;;;16.90;99.90;;;;;;5034650;28;20417;-72
2021/08/30 00:25:12;;;;;;;18.47;16.00;;;16.90;99.90;;;;;;5034722;28;20676;-72
2021/08/30 00:27:38;;;;;;;17.67;15.63;;;16.90;99.90;;;;;;5053299;28;20409;-72
2021/08/30 00:30:06;;;;;;;19.50;17.40;;;17.00;99.90;;;;;;5054453;28;20428;-72
2021/08/30 00:32:32;;;;;;;23.20;17.13;;;17.00;99.90;;;;;;5055627;28;20432;-72
2021/08/30 00:34:57;;;;;;;17.60;15.67;;;17.00;99.90;;;;;;5054773;28;20412;-72
2021/08/30 00:37:23;;;;;;;18.03;16.20;;;17.00;99.90;;;;;;5054482;28;20188;-72
2021/08/30 00:39:50;;;;;;;21.40;17.50;;;17.00;99.90;;;;;;5054332;28;20663;-72
2021/08/30 00:42:16;;;;;;;18.83;16.50;;;17.00;99.90;;;;;;5037774;28;20179;-72
2021/08/30 00:44:41;;;;;;;19.60;16.97;;;17.00;99.90;;;;;;5054572;28;20502;-72
2021/08/30 00:47:07;;;;;;;21.33;17.60;;;16.90;99.90;;;;;;5054439;28;20415;-72
2021/08/30 00:49:32;;;;;;;22.20;17.97;;;16.80;99.90;;;;;;5054292;28;20198;-72
2021/08/30 00:51:59;;;;;;;24.93;19.97;;;16.80;99.90;;;;;;5054744;28;20525;-72
2021/08/30 00:54:26;;;;;;;25.17;20.10;;;16.70;99.90;;;;;;5054411;28;20201;-72
2021/08/30 00:56:52;;;;;;;24.20;20.00;;;16.60;99.90;;;;;;5054659;28;20412;-72
2021/08/30 00:59:18;;;;;;;23.57;19.93;;;16.60;99.90;;;;;;5054389;28;20419;-72
2021/08/30 01:01:43;;;;;;;24.33;20.10;;;16.60;99.90;;;;;;5036311;28;20190;-72
2021/08/30 01:04:11;;;;;;;24.10;20.50;;;16.60;99.90;;;;;;5054094;28;20259;-72
2021/08/30 01:06:43;;;;;;;23.70;19.50;;;16.60;99.90;;;;;;5054519;28;20658;-72
2021/08/30 01:09:37;;;;;;;24.13;20.93;;;16.60;99.90;;;;;;5053472;28;20491;-72
2021/08/30 01:12:16;;;;;;;23.13;20.70;;;16.50;99.90;;;;;;5053742;28;20444;-72
2021/08/30 01:15:01;;;;;;;23.07;20.00;;;16.60;99.90;;;;;;5054051;28;20506;-72
2021/08/30 01:17:29;;;;;;;24.47;19.83;;;16.60;99.90;;;;;;5054222;28;20494;-72
2021/08/30 01:20:08;;;;;;;22.13;19.67;;;16.60;99.90;;;;;;5053575;28;20413;-72
2021/08/30 01:22:40;;;;;;;22.17;19.87;;;16.60;99.90;;;;;;5054936;28;20754;-71
2021/08/30 01:25:08;;;;;;;21.27;18.67;;;16.60;99.90;;;;;;5053882;28;20482;-71
2021/08/30 01:27:34;;;;;;;21.17;18.80;;;16.60;99.90;;;;;;5053728;28;20482;-72
2021/08/30 01:30:09;;;;;;;24.30;21.17;;;16.60;99.90;;;;;;5053873;28;20461;-71
2021/08/30 01:32:42;;;;;;;22.77;19.37;;;16.50;99.90;;;;;;5033693;28;20409;-71
2021/08/30 01:35:15;;;;;;;21.60;19.30;;;16.50;99.90;;;;;;5033986;28;20414;-71
2021/08/30 01:37:43;;;;;;;19.87;17.57;;;16.50;99.90;;;;;;5052463;28;20459;-71
2021/08/30 01:40:11;;;;;;;24.83;19.23;;;16.60;99.90;;;;;;5053703;28;20429;-71
2021/08/30 01:42:40;;;;;;;21.50;17.50;;;16.60;99.90;;;;;;5053406;28;20465;-72
2021/08/30 01:45:09;;;;;;;22.27;19.40;;;16.60;99.90;;;;;;5053330;28;21044;-72
2021/08/30 01:47:36;;;;;;;24.80;19.07;;;16.60;99.90;;;;;;5053862;28;20424;-71
2021/08/30 01:50:04;;;;;;;21.00;18.37;;;16.50;99.90;;;;;;5052928;28;20921;-72
2021/08/30 01:52:33;;;;;;;22.60;19.80;;;16.50;99.90;;;;;;5053798;28;20432;-72
2021/08/30 01:55:05;;;;;;;24.00;20.03;;;16.60;99.90;;;;;;5053993;28;20491;-71
2021/08/30 01:57:41;;;;;;;22.33;18.77;;;16.60;99.90;;;;;;5053546;28;20829;-71
2021/08/30 02:02:53;;;;;;;26.47;22.07;;;16.50;99.90;;;;;;5053309;28;20415;-72
2021/08/30 02:05:18;;;;;;;24.90;20.37;;;16.50;99.90;;;;;;5035507;28;20464;-72
2021/08/30 02:07:44;;;;;;;25.20;22.07;;;16.50;99.90;;;;;;5053758;28;20268;-71
2021/08/30 02:10:09;;;;;;;23.93;21.33;;;16.40;99.90;;;;;;5053178;28;20554;-71
2021/08/30 02:12:35;;;;;;;22.87;19.67;;;16.40;99.90;;;;;;5053227;28;20247;-72
2021/08/30 02:15:00;;;;;;;24.03;21.03;;;16.40;99.90;;;;;;5047528;28;20276;-71
2021/08/30 02:17:32;;;;;;;23.50;20.70;;;16.30;99.90;;;;;;5049977;28;20186;-71
2021/08/30 02:20:11;;;;;;;23.40;19.60;;;16.30;99.90;;;;;;5052063;28;20659;-72
2021/08/30 02:22:42;;;;;;;25.13;22.42;;;16.30;99.90;;;;;;5056734;28;20436;-71
2021/08/30 02:25:18;;;;;;;23.00;20.57;;;16.30;99.90;;;;;;5057232;28;20205;-72
2021/08/30 02:27:50;;;;;;;25.23;21.07;;;16.30;99.90;;;;;;5057432;28;20920;-72
2021/08/30 02:30:32;;;;;;;25.23;19.70;;;16.40;99.90;;;;;;5056938;28;20444;-72
2021/08/30 02:33:05;;;;;;;21.80;19.30;;;16.40;99.90;;;;;;5056987;28;20401;-72
2021/08/30 02:35:33;;;;;;;23.13;20.13;;;16.30;99.90;;;;;;5056939;28;20393;-72
2021/08/30 02:38:00;;;;;;;28.17;21.33;;;16.20;99.90;;;;;;5057064;28;20814;-72
2021/08/30 02:40:28;;;;;;;24.27;20.07;;;16.30;99.90;;;;;;5056958;28;20510;-72
2021/08/30 02:42:58;;;;;;;23.30;20.63;;;16.20;99.90;;;;;;5056985;28;20416;-72
2021/08/30 02:45:25;;;;;;;25.00;19.77;;;16.30;99.90;;;;;;5057344;28;20535;-72
2021/08/30 02:47:51;;;;;;;24.30;20.10;;;16.40;99.90;;;;;;5056986;28;20408;-72
2021/08/30 02:50:18;;;;;;;23.53;21.00;;;16.30;99.90;;;;;;5056472;28;20428;-72
2021/08/30 02:52:45;;;;;;;24.80;20.20;;;16.30;99.90;;;;;;5056896;28;20401;-72
2021/08/30 02:55:11;;;;;;;26.10;21.70;;;16.30;99.90;;;;;;5056869;28;20515;-72
2021/08/30 02:57:38;;;;;;;26.60;20.27;;;16.20;99.90;;;;;;5056583;28;20428;-72
2021/08/30 03:00:05;;;;;;;23.73;20.37;;;16.10;99.90;;;;;;5056138;28;20436;-72
2021/08/30 03:02:32;;;;;;;25.90;22.70;;;16.20;99.90;;;;;;5055899;28;20407;-72
2021/08/30 03:04:59;;;;;;;25.13;20.80;;;16.20;99.90;;;;;;5055646;28;20479;-72
2021/08/30 03:07:28;;;;;;;25.70;21.10;;;16.20;99.90;;;;;;5056640;28;20474;-72
2021/08/30 03:09:56;;;;;;;23.87;21.37;;;16.30;99.90;;;;;;5055867;28;20420;-72
2021/08/30 03:12:22;;;;;;;24.07;20.30;;;16.30;99.90;;;;;;5056211;28;20514;-74
2021/08/30 03:14:49;;;;;;;24.57;20.67;;;16.30;99.90;;;;;;5055782;28;20498;-72
2021/08/30 03:17:16;;;;;;;22.17;19.30;;;16.20;99.90;;;;;;5056808;28;20416;-72
2021/08/30 03:19:45;;;;;;;23.27;20.10;;;16.20;99.90;;;;;;5056152;28;20493;-72
2021/08/30 03:22:12;;;;;;;23.60;20.40;;;16.20;99.90;;;;;;5038565;28;20413;-73
2021/08/30 03:24:42;;;;;;;23.43;20.90;;;16.30;99.90;;;;;;5056590;28;20477;-73
2021/08/30 03:27:12;;;;;;;24.60;20.43;;;16.30;99.90;;;;;;5054705;28;20949;-73
2021/08/30 03:29:39;;;;;;;25.23;19.57;;;16.30;99.90;;;;;;5055950;28;20866;-73
2021/08/30 03:32:08;;;;;;;22.33;19.97;;;16.30;99.90;;;;;;5055301;28;20421;-73
2021/08/30 03:34:35;;;;;;;20.50;18.30;;;16.30;99.90;;;;;;5056133;28;20508;-73
2021/08/30 03:37:02;;;;;;;23.10;20.33;;;16.30;99.90;;;;;;5037152;28;20431;-73
2021/08/30 03:39:28;;;;;;;22.50;20.10;;;16.30;99.90;;;;;;5056069;28;20427;-73
2021/08/30 03:41:54;;;;;;;21.20;18.83;;;16.20;99.90;;;;;;5056068;28;20512;-73
2021/08/30 03:44:21;;;;;;;22.67;20.17;;;16.20;99.90;;;;;;5056581;28;20611;-73
2021/08/30 03:46:46;;;;;;;22.27;19.87;;;16.10;99.90;;;;;;5055829;28;20405;-72
2021/08/30 03:49:12;;;;;;;25.47;19.43;;;16.10;99.90;;;;;;5037733;28;20441;-73
2021/08/30 03:51:39;;;;;;;22.63;19.03;;;16.10;99.90;;;;;;5055941;28;20674;-71
2021/08/30 03:54:06;;;;;;;22.67;19.37;;;16.10;99.90;;;;;;5056447;28;20509;-72
2021/08/30 03:56:32;;;;;;;20.87;18.27;;;16.20;99.90;;;;;;5058161;28;20397;-71
2021/08/30 03:59:01;;;;;;;25.60;19.13;;;16.20;99.90;;;;;;5041103;28;20445;-73
2021/08/30 04:01:28;;;;;;;23.77;18.93;;;16.30;99.90;;;;;;5061080;28;20499;-72
2021/08/30 04:03:58;;;;;;;26.50;19.40;;;16.30;99.90;;;;;;5060941;28;20860;-72
2021/08/30 04:06:24;;;;;;;21.63;18.23;;;16.30;99.90;;;;;;5060073;28;20460;-72
2021/08/30 04:08:50;;;;;;;23.73;20.30;;;16.20;99.90;;;;;;5059081;28;20412;-72
2021/08/30 04:11:16;;;;;;;20.10;17.90;;;16.20;99.90;;;;;;5057840;28;20428;-72
2021/08/30 04:13:42;;;;;;;23.27;19.63;;;16.20;99.90;;;;;;5057358;28;20163;-72
2021/08/30 04:16:08;;;;;;;22.57;18.33;;;16.30;99.90;;;;;;5055985;28;20222;-72
2021/08/30 04:18:35;;;;;;;22.40;19.20;;;16.30;99.90;;;;;;5051030;28;20417;-72
2021/08/30 04:21:00;;;;;;;29.27;18.70;;;16.30;99.90;;;;;;5062063;28;20435;-71
2021/08/30 04:23:26;;;;;;;21.30;18.53;;;16.30;99.90;;;;;;5053664;28;20428;-72
2021/08/30 04:25:51;;;;;;;20.60;17.67;;;16.40;99.90;;;;;;5024307;28;20672;-72
2021/08/30 04:28:17;;;;;;;20.30;18.17;;;16.40;99.90;;;;;;5042652;28;20195;-72
2021/08/30 04:30:43;;;;;;;25.20;19.10;;;16.40;99.90;;;;;;5033849;28;20207;-72
2021/08/30 04:33:13;;;;;;;22.93;20.27;;;16.40;99.90;;;;;;5023004;28;20217;-72
2021/08/30 04:35:40;;;;;;;22.93;19.80;;;16.50;99.90;;;;;;5044342;28;20205;-72
2021/08/30 04:38:06;;;;;;;23.40;19.03;;;16.50;99.90;;;;;;5052470;28;20432;-72
2021/08/30 04:40:32;;;;;;;25.80;20.97;;;16.30;99.90;;;;;;5034864;28;20451;-73
2021/08/30 04:42:58;;;;;;;25.67;20.17;;;16.30;99.90;;;;;;5038420;28;20416;-73
2021/08/30 04:45:23;;;;;;;21.53;18.37;;;16.20;99.90;;;;;;5050457;28;20555;-73
2021/08/30 04:47:49;;;;;;;25.20;20.73;;;16.20;99.90;;;;;;5047710;28;20441;-71
2021/08/30 04:50:15;;;;;;;26.50;21.03;;;16.20;99.90;;;;;;5044774;28;20211;-72
2021/08/30 04:52:42;;;;;;;27.83;22.33;;;16.20;99.90;;;;;;5044742;28;20232;-73
2021/08/30 04:55:08;;;;;;;29.03;21.97;;;16.20;99.90;;;;;;5034874;28;20269;-73
2021/08/30 04:57:34;;;;;;;23.23;20.43;;;16.20;99.90;;;;;;5038053;28;20526;-72
2021/08/30 05:00:00;;;;;;;26.57;23.37;;;16.20;99.90;;;;;;5032630;28;20520;-72
2021/08/30 05:02:26;;;;;;;27.40;22.10;;;16.10;99.90;;;;;;5037632;28;20562;-73
2021/08/30 05:04:55;;;;;;;29.70;23.83;;;16.10;99.90;;;;;;5043064;28;20475;-72
2021/08/30 05:07:21;;;;;;;27.80;21.47;;;16.10;99.90;;;;;;5060633;28;20227;-72
2021/08/30 05:09:46;;;;;;;24.90;21.83;;;16.10;99.90;;;;;;5052522;28;20447;-72
2021/08/30 05:12:12;;;;;;;28.33;23.60;;;16.20;99.90;;;;;;5052566;28;20198;-73
2021/08/30 05:14:38;;;;;;;28.60;24.90;;;16.20;99.90;;;;;;5057208;28;20240;-72
2021/08/30 05:17:03;;;;;;;28.90;23.80;;;16.20;99.90;;;;;;5053072;28;20198;-72
2021/08/30 05:19:29;;;;;;;31.40;24.90;;;16.20;99.90;;;;;;5052451;28;20443;-72
2021/08/30 05:21:55;;;;;;;35.20;25.63;;;16.10;99.90;;;;;;5052831;28;20736;-72
2021/08/30 05:24:20;;;;;;;26.97;24.00;;;16.10;99.90;;;;;;5034897;28;20201;-72
2021/08/30 05:26:46;;;;;;;27.37;24.47;;;16.10;99.90;;;;;;5050846;28;20522;-73
2021/08/30 05:29:12;;;;;;;27.30;24.50;;;16.10;99.90;;;;;;5051257;28;20678;-73
2021/08/30 05:31:37;;;;;;;29.83;23.47;;;16.10;99.90;;;;;;5034947;28;20255;-72
2021/08/30 05:34:03;;;;;;;29.57;24.50;;;16.10;99.90;;;;;;5054034;28;20174;-72
2021/08/30 05:36:28;;;;;;;27.37;23.63;;;16.00;99.90;;;;;;5036646;28;20208;-73
2021/08/30 05:38:55;;;;;;;29.43;25.03;;;16.10;99.90;;;;;;5054554;28;20527;-73
2021/08/30 05:41:21;;;;;;;31.07;26.80;;;16.10;99.90;;;;;;5055167;28;20190;-73
2021/08/30 05:43:48;;;;;;;34.47;30.70;;;16.10;99.90;;;;;;5054013;28;20416;-73
2021/08/30 05:46:16;;;;;;;33.40;29.07;;;16.10;99.90;;;;;;5054516;28;20495;-73
2021/08/30 05:48:47;;;;;;;34.70;28.23;;;16.00;99.90;;;;;;5054462;28;20423;-73
2021/08/30 05:51:12;;;;;;;34.43;29.20;;;16.00;99.90;;;;;;5054015;28;20475;-73
2021/08/30 05:53:38;;;;;;;36.83;29.07;;;16.00;99.90;;;;;;5054239;28;20878;-74
2021/08/30 05:56:04;;;;;;;34.20;28.50;;;16.00;99.90;;;;;;5054046;28;20221;-71
2021/08/30 05:58:30;;;;;;;35.57;27.73;;;16.00;99.90;;;;;;5054295;28;20240;-72
2021/08/30 06:00:55;;;;;;;36.00;28.83;;;16.10;99.90;;;;;;5054556;28;20917;-72
2021/08/30 06:03:21;;;;;;;31.40;27.40;;;16.10;99.90;;;;;;5053446;28;20539;-73
2021/08/30 06:05:46;;;;;;;34.23;25.70;;;16.00;99.90;;;;;;5053895;28;20302;-72
2021/08/30 06:08:12;;;;;;;32.87;27.43;;;16.00;99.90;;;;;;5053602;28;20192;-73
2021/08/30 06:10:38;;;;;;;36.07;27.60;;;16.00;99.90;;;;;;5053653;28;20613;-73
2021/08/30 06:13:03;;;;;;;34.90;25.60;;;16.10;99.90;;;;;;5053800;28;20243;-73
2021/08/30 06:15:29;;;;;;;31.80;26.53;;;16.00;99.90;;;;;;5053797;28;20415;-73
2021/08/30 06:17:54;;;;;;;34.80;26.00;;;16.00;99.90;;;;;;5053943;28;20416;-73
2021/08/30 06:20:22;;;;;;;32.57;23.77;;;16.10;99.90;;;;;;5053099;28;20664;-73
2021/08/30 06:22:47;;;;;;;33.20;24.23;;;16.10;99.90;;;;;;5053747;28;20176;-73
2021/08/30 06:25:13;;;;;;;28.07;23.57;;;16.00;99.90;;;;;;5053595;28;20460;-73
2021/08/30 06:27:38;;;;;;;32.93;25.07;;;16.00;99.90;;;;;;5053954;28;20181;-73
2021/08/30 06:30:04;;;;;;;29.83;25.10;;;16.10;99.90;;;;;;5053954;28;20193;-72
2021/08/30 06:32:30;;;;;;;28.17;23.03;;;16.10;99.90;;;;;;5053431;28;20208;-72
2021/08/30 06:34:55;;;;;;;33.43;26.80;;;16.10;99.90;;;;;;5053517;28;20459;-73
2021/08/30 06:37:21;;;;;;;36.20;29.30;;;16.10;99.90;;;;;;5054282;28;20174;-73
2021/08/30 06:39:46;;;;;;;33.03;26.13;;;16.20;99.90;;;;;;5053148;28;20192;-73
2021/08/30 06:42:12;;;;;;;30.93;25.70;;;16.10;99.90;;;;;;5053608;28;20673;-73
2021/08/30 06:44:38;;;;;;;34.60;25.97;;;16.20;99.90;;;;;;5053058;28;20185;-73
2021/08/30 06:47:04;;;;;;;29.70;26.43;;;16.30;99.90;;;;;;5053643;28;20417;-73
2021/08/30 06:49:29;;;;;;;31.87;26.30;;;16.20;99.90;;;;;;5035295;28;20220;-73
2021/08/30 06:51:55;;;;;;;30.77;25.47;;;16.20;99.90;;;;;;5053421;28;20194;-72
2021/08/30 06:54:21;;;;;;;29.80;25.17;;;16.20;99.90;;;;;;5035280;28;20178;-72
2021/08/30 06:56:46;;;;;;;33.90;26.47;;;16.30;99.90;;;;;;5053665;28;20507;-73
2021/08/30 06:59:12;;;;;;;33.10;26.40;;;16.30;99.90;;;;;;5052848;28;20183;-72
2021/08/30 07:01:38;;;;;;;34.10;27.03;;;16.30;99.90;;;;;;5053559;28;20190;-72
2021/08/30 07:04:03;;;;;;;32.57;26.03;;;16.20;99.90;;;;;;5053496;28;20174;-73
2021/08/30 07:06:30;;;;;;;32.60;27.27;;;16.20;99.90;;;;;;5054042;28;20202;-73
2021/08/30 07:08:55;;;;;;;32.93;27.03;;;16.20;99.90;;;;;;5040011;28;20600;-72
2021/08/30 07:11:21;;;;;;;31.67;25.63;;;16.10;99.90;;;;;;5057387;28;20476;-72
2021/08/30 07:13:46;;;;;;;33.50;26.73;;;16.10;99.90;;;;;;5057265;28;20168;-72
2021/08/30 07:16:12;;;;;;;34.30;27.07;;;16.10;99.90;;;;;;5057958;28;20184;-72
2021/08/30 07:18:37;;;;;;;32.00;26.70;;;16.20;99.90;;;;;;5057267;28;20178;-72
2021/08/30 07:21:03;;;;;;;37.53;26.17;;;16.20;99.90;;;;;;5038401;28;20570;-72
2021/08/30 07:23:31;;;;;;;36.90;27.03;;;16.20;99.90;;;;;;5056598;28;20595;-73
2021/08/30 07:25:57;;;;;;;34.33;26.80;;;16.20;99.90;;;;;;5056824;28;20208;-72
2021/08/30 07:28:22;;;;;;;35.97;29.20;;;16.20;99.90;;;;;;5056757;28;20509;-72
2021/08/30 07:30:48;;;;;;;32.23;27.10;;;16.20;99.90;;;;;;5039080;28;20440;-72
2021/08/30 07:33:14;;;;;;;31.67;25.73;;;16.20;99.90;;;;;;5056995;28;20249;-72
2021/08/30 07:35:40;;;;;;;34.10;29.70;;;16.30;99.90;;;;;;5038453;28;20517;-72
2021/08/30 07:38:06;;;;;;;28.93;25.80;;;16.40;99.90;;;;;;5057696;28;20171;-72
2021/08/30 07:40:32;;;;;;;31.40;27.07;;;16.40;99.90;;;;;;5056886;28;20190;-72
2021/08/30 07:42:57;;;;;;;30.20;26.27;;;16.40;99.90;;;;;;5056255;28;20201;-74
2021/08/30 07:45:23;;;;;;;32.20;25.73;;;16.50;99.90;;;;;;5038505;28;20475;-72
2021/08/30 07:47:48;;;;;;;32.80;26.87;;;16.60;99.90;;;;;;5038125;28;20177;-74
2021/08/30 07:50:14;;;;;;;36.07;27.33;;;16.60;99.90;;;;;;5037590;28;20201;-74
2021/08/30 07:52:40;;;;;;;31.93;26.30;;;16.60;99.90;;;;;;5056236;28;20717;-73
2021/08/30 07:55:07;;;;;;;34.33;25.87;;;16.70;99.90;;;;;;5037968;28;20470;-73
2021/08/30 07:57:34;;;;;;;31.77;26.90;;;16.60;99.90;;;;;;5055904;28;20678;-73
2021/08/30 07:59:59;;;;;;;30.90;25.23;;;16.70;99.90;;;;;;5055567;28;20438;-72
2021/08/30 08:02:25;;;;;;;29.37;25.17;;;16.80;99.90;;;;;;5055967;28;20474;-73
2021/08/30 08:04:50;;;;;;;29.00;24.20;;;16.90;99.90;;;;;;5056030;28;20221;-72
2021/08/30 08:07:16;;;;;;;28.37;23.90;;;16.80;99.90;;;;;;5037758;28;20166;-72
2021/08/30 08:09:41;;;;;;;27.00;22.40;;;16.80;99.90;;;;;;5055742;28;20600;-73
2021/08/30 08:12:08;;;;;;;24.33;21.07;;;16.80;99.90;;;;;;5037408;28;20202;-72
2021/08/30 08:14:34;;;;;;;24.87;21.67;;;16.90;99.90;;;;;;5055746;28;20182;-72
2021/08/30 08:16:59;;;;;;;27.27;21.60;;;17.10;99.90;;;;;;5056212;28;20416;-72
2021/08/30 08:19:25;;;;;;;24.40;20.63;;;17.20;99.90;;;;;;5055486;28;20420;-73
2021/08/30 08:21:50;;;;;;;25.67;20.80;;;17.30;99.90;;;;;;5056057;28;20600;-73
2021/08/30 08:24:16;;;;;;;20.93;18.73;;;17.50;99.90;;;;;;5055992;28;20177;-73
2021/08/30 08:26:42;;;;;;;24.67;18.90;;;17.70;99.90;;;;;;5055332;28;20198;-73
2021/08/30 08:29:08;;;;;;;21.53;19.33;;;17.80;99.90;;;;;;5055521;28;20227;-73
2021/08/30 08:31:33;;;;;;;20.30;18.17;;;17.80;99.90;;;;;;5055436;28;20663;-73
2021/08/30 08:33:59;;;;;;;20.80;18.60;;;17.70;99.90;;;;;;5055811;28;20167;-73
2021/08/30 08:36:26;;;;;;;19.93;17.83;;;17.80;99.90;;;;;;5055197;28;20593;-72
2021/08/30 08:38:52;;;;;;;19.57;17.57;;;17.90;99.90;;;;;;5055092;28;20201;-73
2021/08/30 08:41:17;;;;;;;22.80;18.13;;;18.10;99.90;;;;;;5055259;28;20456;-72
2021/08/30 08:43:43;;;;;;;21.97;19.67;;;18.30;99.90;;;;;;5055149;28;20765;-73
2021/08/30 08:46:09;;;;;;;22.67;20.37;;;18.40;99.90;;;;;;5055135;28;20201;-72
2021/08/30 08:48:35;;;;;;;23.20;20.80;;;18.60;99.90;;;;;;5055203;28;20769;-72
2021/08/30 08:51:00;;;;;;;23.17;20.77;;;18.70;99.90;;;;;;5055041;28;20328;-72
2021/08/30 08:53:26;;;;;;;23.77;21.30;;;18.80;99.90;;;;;;5054786;28;20453;-73
2021/08/30 08:55:52;;;;;;;22.73;19.97;;;18.50;99.90;;;;;;5054598;28;20183;-72
2021/08/30 08:58:20;;;;;;;22.57;20.17;;;18.60;99.90;;;;;;5054724;28;20539;-72
2021/08/30 09:00:58;;;;;;;21.03;18.80;;;18.50;99.90;;;;;;5054503;28;20430;-73
2021/08/30 09:03:24;;;;;;;24.27;20.43;;;18.60;99.90;;;;;;5054840;28;20413;-72
2021/08/30 09:06:00;;;;;;;21.47;19.27;;;18.50;99.90;;;;;;5054316;28;20444;-73
2021/08/30 09:08:43;;;;;;;22.37;20.10;;;18.60;99.90;;;;;;5037119;28;20170;-72
2021/08/30 09:11:20;;;;;;;23.63;21.23;;;18.60;99.90;;;;;;5053859;28;20456;-72
2021/08/30 09:13:52;;;;;;;21.90;19.10;;;18.60;99.90;;;;;;5034727;28;20397;-74
2021/08/30 09:16:19;;;;;;;21.97;19.87;;;18.40;99.90;;;;;;5034134;28;20763;-74
2021/08/30 09:18:44;;;;;;;22.37;19.23;;;18.30;99.90;;;;;;5033843;28;20852;-72
2021/08/30 09:21:11;;;;;;;20.20;18.10;;;18.40;99.90;;;;;;5032033;28;20460;-73
2021/08/30 09:23:39;;;;;;;22.80;20.50;;;18.50;99.90;;;;;;5042035;28;20741;-75
2021/08/30 09:26:05;;;;;;;24.77;19.90;;;18.50;99.90;;;;;;5056686;28;20499;-72
2021/08/30 09:28:37;;;;;;;20.50;18.40;;;18.50;99.90;;;;;;5048983;28;20917;-72
2021/08/30 09:31:03;;;;;;;21.03;19.00;;;18.50;99.90;;;;;;5049762;28;20624;-72
2021/08/30 09:33:28;;;;;;;19.93;17.70;;;18.50;99.90;;;;;;5034781;28;20467;-73
2021/08/30 09:36:01;;;;;;;20.37;18.27;;;18.60;99.90;;;;;;5050471;28;20221;-73
2021/08/30 09:38:35;;;;;;;20.20;18.10;;;18.70;99.90;;;;;;5051610;28;20439;-73
2021/08/30 09:41:09;;;;;;;18.00;16.13;;;18.60;99.90;;;;;;5070228;28;20948;-72
2021/08/30 09:43:35;;;;;;;18.30;16.47;;;18.80;99.90;;;;;;5063233;28;20546;-73
2021/08/30 09:46:02;;;;;;;18.40;16.60;;;18.90;99.90;;;;;;5050603;28;21275;-73
2021/08/30 09:48:28;;;;;;;17.90;16.07;;;19.10;99.90;;;;;;5068216;28;20532;-73
2021/08/30 09:51:00;;;;;;;20.03;15.63;;;19.00;99.90;;;;;;5064635;28;20467;-72
2021/08/30 09:53:26;;;;;;;16.20;14.63;;;19.10;99.90;;;;;;5049928;28;20443;-72
2021/08/30 09:55:51;;;;;;;16.50;14.90;;;19.20;99.90;;;;;;5063120;28;20431;-72
2021/08/30 09:58:18;;;;;;;16.47;14.90;;;19.20;99.90;;;;;;5070312;28;20174;-72
2021/08/30 10:00:46;;;;;;;17.00;15.20;;;19.20;99.90;;;;;;5050290;28;20259;-73
2021/08/30 10:03:13;;;;;;;17.40;15.20;;;19.20;99.90;;;;;;5058472;28;20427;-73
2021/08/30 10:05:40;;;;;;;16.27;14.63;;;19.20;99.90;;;;;;5040082;28;20491;-73
2021/08/30 10:08:06;;;;;;;18.60;16.70;;;19.20;99.90;;;;;;5049676;28;20444;-73
2021/08/30 10:10:32;;;;;;;16.63;14.90;;;19.10;99.90;;;;;;5056461;28;20440;-73
2021/08/30 10:12:59;;;;;;;17.63;15.83;;;19.00;99.90;;;;;;5049852;28;20946;-72
2021/08/30 10:15:26;;;;;;;18.63;15.53;;;18.80;99.90;;;;;;5048045;28;20254;-73
2021/08/30 10:17:53;;;;;;;17.43;15.73;;;18.60;99.90;;;;;;5024524;28;20473;-71
2021/08/30 10:20:22;;;;;;;18.27;16.33;;;18.70;99.90;;;;;;5033221;28;20472;-72
2021/08/30 10:22:59;;;;;;;17.47;15.63;;;18.60;99.90;;;;;;5042523;28;20420;-72
2021/08/30 10:25:26;;;;;;;17.53;15.93;;;18.60;99.90;;;;;;5057906;28;21027;-72
2021/08/30 10:28:14;;;;;;;17.13;15.30;;;18.40;99.90;;;;;;5031122;28;20456;-72
2021/08/30 10:30:53;;;;;;;16.30;14.77;;;18.60;99.90;;;;;;5043906;28;20447;-72
2021/08/30 10:33:22;;;;;;;19.23;17.00;;;18.90;99.90;;;;;;5058577;28;20506;-72
2021/08/30 10:35:48;;;;;;;16.87;15.20;;;19.00;99.90;;;;;;5056993;28;20478;-72
2021/08/30 10:38:17;;;;;;;16.90;15.20;;;18.90;99.90;;;;;;5049121;28;20432;-72
2021/08/30 10:40:52;;;;;;;17.73;15.20;;;18.80;99.90;;;;;;5037319;28;20205;-71
2021/08/30 10:43:20;;;;;;;15.13;13.63;;;19.00;99.90;;;;;;5064765;28;20843;-73
2021/08/30 10:45:56;;;;;;;16.20;14.70;;;19.00;99.90;;;;;;5066817;28;20808;-73
2021/08/30 10:48:32;;;;;;;17.17;15.47;;;18.90;99.90;;;;;;5073438;28;20776;-73
2021/08/30 10:50:59;;;;;;;15.00;13.40;;;18.80;99.90;;;;;;5054076;28;20496;-73
2021/08/30 10:53:26;;;;;;;17.30;15.63;;;18.70;99.90;;;;;;5053589;28;20473;-73
2021/08/30 10:56:01;;;;;;;16.03;14.40;;;18.70;99.90;;;;;;5054441;28;20412;-74
2021/08/30 10:58:27;;;;;;;16.60;15.00;;;18.80;99.90;;;;;;5053793;28;20400;-73
2021/08/30 11:00:55;;;;;;;17.13;15.03;;;19.00;99.90;;;;;;5058921;28;20542;-73
2021/08/30 11:03:34;;;;;;;17.40;15.63;;;19.20;99.90;;;;;;5073365;28;20415;-73
2021/08/30 11:06:01;;;;;;;16.23;14.70;;;19.30;99.90;;;;;;5061675;28;20466;-73
2021/08/30 11:08:27;;;;;;;16.53;14.93;;;19.30;99.90;;;;;;5053146;28;20419;-72
2021/08/30 11:10:53;;;;;;;20.10;16.07;;;19.30;99.90;;;;;;5045591;28;20455;-73
2021/08/30 11:13:26;;;;;;;16.03;14.40;;;19.30;99.90;;;;;;5062739;28;20441;-71
2021/08/30 11:15:51;;;;;;;16.33;14.10;;;19.30;99.90;;;;;;5063170;28;20839;-72
2021/08/30 11:18:17;;;;;;;14.67;13.23;;;19.50;99.90;;;;;;5057637;28;20429;-74
2021/08/30 11:20:49;;;;;;;15.57;14.17;;;19.50;99.90;;;;;;5057180;28;20288;-73
2021/08/30 11:23:15;;;;;;;13.97;12.70;;;19.70;99.90;;;;;;5054478;28;20185;-73
2021/08/30 11:25:42;;;;;;;15.70;14.20;;;19.70;99.90;;;;;;5064303;28;20456;-73
2021/08/30 11:28:18;;;;;;;15.17;13.77;;;19.70;99.90;;;;;;5053220;28;20425;-73
2021/08/30 11:30:45;;;;;;;13.60;11.90;;;19.90;99.90;;;;;;5050946;28;20469;-74
2021/08/30 11:33:24;;;;;;;13.90;12.60;;;20.00;99.90;;;;;;5053186;28;20420;-72
2021/08/30 11:35:50;;;;;;;13.57;12.27;;;20.00;99.90;;;;;;5051460;28;20431;-73
2021/08/30 11:38:16;;;;;;;14.37;12.97;;;20.00;99.90;;;;;;5053245;28;20416;-72
2021/08/30 11:40:42;;;;;;;14.93;13.43;;;20.00;99.90;;;;;;5037062;28;20668;-72
2021/08/30 11:43:13;;;;;;;16.83;12.63;;;19.90;99.90;;;;;;5053618;28;20772;-73
2021/08/30 11:45:38;;;;;;;13.90;12.50;;;20.00;99.90;;;;;;5049972;28;20205;-73
2021/08/30 11:48:04;;;;;;;13.37;12.07;;;20.00;99.90;;;;;;5054332;28;20438;-73
2021/08/30 11:50:30;;;;;;;13.20;11.90;;;19.90;99.90;;;;;;5068779;28;20201;-72
2021/08/30 11:52:59;;;;;;;12.20;11.10;;;20.00;99.90;;;;;;5051954;28;20178;-72
2021/08/30 11:55:25;;;;;;;15.70;11.57;;;20.00;99.90;;;;;;5062404;28;20290;-73
2021/08/30 11:58:01;;;;;;;11.50;10.50;;;19.90;99.90;;;;;;5059612;28;20432;-73
2021/08/30 12:00:28;;;;;;;13.00;11.70;;;20.10;99.90;;;;;;5054228;28;20412;-72
2021/08/30 12:02:59;;;;;;;11.47;10.37;;;20.20;99.90;;;;;;5055544;28;20173;-72
2021/08/30 12:05:29;;;;;;;12.15;10.35;;;20.30;99.90;;;;;;5055253;28;20434;-72
2021/08/30 12:07:56;;;;;;;12.23;11.20;;;20.40;99.90;;;;;;5059432;28;20220;-72
2021/08/30 12:10:22;;;;;;;12.43;11.23;;;20.50;99.90;;;;;;5070526;28;20534;-72
2021/08/30 12:12:56;;;;;;;12.10;10.90;;;20.60;99.90;;;;;;5054800;28;20431;-72
2021/08/30 12:15:24;;;;;;;13.20;11.20;;;20.60;99.90;;;;;;5063761;28;20432;-72
2021/08/30 12:17:54;;;;;;;14.70;11.70;;;20.50;99.90;;;;;;5052225;28;20437;-72
2021/08/30 12:20:26;;;;;;;11.13;10.13;;;20.40;99.90;;;;;;5051813;28;20500;-72
2021/08/30 12:23:01;;;;;;;10.17;9.27;;;20.40;99.90;;;;;;5050799;28;20439;-72
2021/08/30 12:25:51;;;;;;;10.60;9.50;;;20.30;99.90;;;;;;5043332;28;20458;-73
2021/08/30 12:28:17;;;;;;;10.33;9.33;;;20.50;99.90;;;;;;5036490;28;20405;-73
2021/08/30 12:30:48;;;;;;;10.57;9.67;;;20.70;99.90;;;;;;5033348;28;20498;-73
2021/08/30 12:33:22;;;;;;;9.80;8.80;;;20.60;99.90;;;;;;5059406;28;20273;-73